createdAt,value
2023-05-09T00:01:22.582Z,3.35
2023-05-09T00:04:59.993Z,3.10
2023-05-09T00:08:21.196Z,2.90
2023-05-09T00:11:40.428Z,3.50
2023-05-09T00:14:52.337Z,3.00
2023-05-09T00:18:00.846Z,3.03
2023-05-09T00:21:22.413Z,3.20
2023-05-09T00:24:34.082Z,2.92
2023-05-09T00:27:39.885Z,3.10
2023-05-09T00:30:51.701Z,3.40
2023-05-09T00:33:56.626Z,3.20
2023-05-09T00:37:15.413Z,3.20
2023-05-09T00:40:57.977Z,3.47
2023-05-09T00:44:15.990Z,3.08
2023-05-09T00:47:36.176Z,3.10
2023-05-09T00:51:06.181Z,3.03
2023-05-09T00:54:33.202Z,3.10
2023-05-09T00:57:54.718Z,3.25
2023-05-09T01:01:12.094Z,3.65
2023-05-09T01:04:35.042Z,3.47
2023-05-09T01:08:19.675Z,3.20
2023-05-09T01:11:43.518Z,3.65
2023-05-09T01:15:13.138Z,3.33
2023-05-09T01:18:47.282Z,3.40
2023-05-09T01:22:09.097Z,3.40
2023-05-09T01:26:14.028Z,3.50
2023-05-09T01:29:54.876Z,3.40
2023-05-09T01:33:14.586Z,3.40
2023-05-09T01:36:59.524Z,3.10
2023-05-09T01:40:48.136Z,3.50
2023-05-09T01:44:37.751Z,3.55
2023-05-09T01:48:10.067Z,3.47
2023-05-09T01:51:52.935Z,3.53
2023-05-09T01:55:38.595Z,3.55
2023-05-09T01:59:29.950Z,3.70
2023-05-09T02:02:59.191Z,3.60
2023-05-09T02:06:22.013Z,3.80
2023-05-09T02:09:59.218Z,3.88
2023-05-09T02:13:30.915Z,3.78
2023-05-09T02:16:55.198Z,3.70
2023-05-09T02:20:22.368Z,14.73
2023-05-09T02:23:43.763Z,4.30
2023-05-09T02:27:05.982Z,4.03
2023-05-09T02:30:33.698Z,3.83
2023-05-09T02:34:00.219Z,3.50
2023-05-09T02:37:37.661Z,3.40
2023-05-09T02:41:09.441Z,4.30
2023-05-09T02:44:43.666Z,4.00
2023-05-09T02:48:20.492Z,3.90
2023-05-09T02:52:17.677Z,3.80
2023-05-09T02:55:37.053Z,3.83
2023-05-09T02:58:51.626Z,4.15
2023-05-09T03:02:08.508Z,3.55
2023-05-09T03:05:27.933Z,4.05
2023-05-09T03:08:47.684Z,4.10
2023-05-09T03:12:09.805Z,3.65
2023-05-09T03:15:29.932Z,4.00
2023-05-09T03:18:56.894Z,4.40
2023-05-09T03:22:09.778Z,4.20
2023-05-09T03:25:36.847Z,3.60
2023-05-09T03:28:54.180Z,3.70
2023-05-09T03:32:20.790Z,3.97
2023-05-09T03:35:39.234Z,4.00
2023-05-09T03:39:04.916Z,4.03
2023-05-09T03:43:03.251Z,4.13
2023-05-09T03:46:55.530Z,4.00
2023-05-09T03:50:17.344Z,4.68
2023-05-09T03:53:24.127Z,4.10
2023-05-09T03:56:43.372Z,4.00
2023-05-09T04:04:24.702Z,3.67
2023-05-09T04:07:32.734Z,4.25
2023-05-09T04:10:50.569Z,3.70
2023-05-09T04:14:08.841Z,4.18
2023-05-09T04:17:16.248Z,3.87
2023-05-09T04:20:22.376Z,4.20
2023-05-09T04:23:45.005Z,4.13
2023-05-09T04:26:53.743Z,3.70
2023-05-09T04:30:06.996Z,4.03
2023-05-09T04:33:13.608Z,3.70
2023-05-09T04:36:37.247Z,4.07
2023-05-09T04:39:57.646Z,4.18
2023-05-09T04:43:36.221Z,4.03
2023-05-09T04:46:45.625Z,4.25
2023-05-09T04:50:18.205Z,3.80
2023-05-09T04:53:51.213Z,4.25
2023-05-09T04:57:33.653Z,3.97
2023-05-09T05:00:57.336Z,3.72
2023-05-09T05:04:15.909Z,4.28
2023-05-09T05:07:38.320Z,3.70
2023-05-09T05:11:03.235Z,3.60
2023-05-09T05:14:23.433Z,3.80
2023-05-09T05:17:46.275Z,3.22
2023-05-09T05:21:06.799Z,3.90
2023-05-09T05:24:26.414Z,3.70
2023-05-09T05:27:39.755Z,4.50
2023-05-09T05:31:02.343Z,4.07
2023-05-09T05:34:26.449Z,3.55
2023-05-09T05:37:52.178Z,4.03
2023-05-09T05:41:04.736Z,3.60
2023-05-09T05:44:35.139Z,4.20
2023-05-09T05:48:02.871Z,4.05
2023-05-09T05:51:18.398Z,3.70
2023-05-09T05:54:31.220Z,4.00
2023-05-09T05:57:46.176Z,3.60
2023-05-09T06:00:57.161Z,3.70
2023-05-09T06:12:45.828Z,3.65
2023-05-09T06:16:18.426Z,3.27
2023-05-09T06:19:29.568Z,3.13
2023-05-09T06:22:38.998Z,3.53
2023-05-09T06:25:52.097Z,3.50
2023-05-09T06:29:14.813Z,3.30
2023-05-09T06:32:29.083Z,3.20
2023-05-09T06:35:53.006Z,3.00
2023-05-09T06:39:19.049Z,6.28
2023-05-09T06:42:40.145Z,3.20
2023-05-09T06:46:03.123Z,3.05
2023-05-09T06:49:25.264Z,3.30
2023-05-09T06:52:45.561Z,3.75
2023-05-09T06:56:01.817Z,1.70
2023-05-09T06:59:05.454Z,1.63
2023-05-09T07:02:09.760Z,1.70
2023-05-09T07:05:28.490Z,1.63
2023-05-09T07:08:52.825Z,1.40
2023-05-09T07:12:02.138Z,1.45
2023-05-09T07:15:25.635Z,1.70
2023-05-09T07:18:44.113Z,1.50
2023-05-09T07:21:51.824Z,1.40
2023-05-09T07:25:00.239Z,1.88
2023-05-09T07:28:12.806Z,1.33
2023-05-09T07:32:10.364Z,1.30
2023-05-09T07:35:22.770Z,1.40
2023-05-09T07:38:29.533Z,1.60
2023-05-09T07:41:39.144Z,1.50
2023-05-09T07:44:58.573Z,1.30
2023-05-09T07:48:27.866Z,1.67
2023-05-09T07:51:34.274Z,1.25
2023-05-09T07:54:40.389Z,1.30
2023-05-09T07:57:58.073Z,1.13
2023-05-09T08:01:08.019Z,1.02
2023-05-09T08:04:30.039Z,1.50
2023-05-09T08:07:49.521Z,0.90
2023-05-09T08:11:12.455Z,1.20
2023-05-09T08:14:46.198Z,1.10
2023-05-09T08:17:54.434Z,0.80
2023-05-09T08:21:21.466Z,1.00
2023-05-09T08:24:40.200Z,1.00
2023-05-09T08:27:57.075Z,1.00
2023-05-09T08:31:16.794Z,0.75
2023-05-09T08:34:28.865Z,1.40
2023-05-09T08:37:48.931Z,1.10
2023-05-09T08:41:17.029Z,1.10
2023-05-09T08:44:44.759Z,1.00
2023-05-09T08:48:09.797Z,0.90
2023-05-09T08:51:40.855Z,1.00
2023-05-09T08:54:54.694Z,0.90
2023-05-09T08:58:23.848Z,0.95
2023-05-09T09:01:38.647Z,0.70
2023-05-09T09:04:59.728Z,1.17
2023-05-09T09:08:25.617Z,0.80
2023-05-09T09:11:45.635Z,0.80
2023-05-09T09:15:07.703Z,1.00
2023-05-09T09:18:35.970Z,0.90
2023-05-09T09:21:46.102Z,0.90
2023-05-09T09:25:03.830Z,1.10
2023-05-09T09:28:38.256Z,0.80
2023-05-09T09:32:05.067Z,1.60
2023-05-09T09:35:19.731Z,0.70
2023-05-09T09:38:48.344Z,0.70
2023-05-09T09:42:16.521Z,0.63
2023-05-09T09:45:30.447Z,0.95
2023-05-09T09:48:46.093Z,1.40
2023-05-09T09:51:54.891Z,0.70
2023-05-09T09:55:13.840Z,0.75
2023-05-09T09:58:35.808Z,1.20
2023-05-09T10:02:09.534Z,1.00
2023-05-09T10:05:27.645Z,1.50
2023-05-09T10:08:45.053Z,0.80
2023-05-09T10:12:07.355Z,1.50
2023-05-09T10:15:17.575Z,1.65
2023-05-09T10:18:45.285Z,2.40
2023-05-09T10:22:17.449Z,1.00
2023-05-09T10:25:28.798Z,0.80
2023-05-09T10:28:40.095Z,0.73
2023-05-09T10:32:10.559Z,1.00
2023-05-09T10:35:54.514Z,1.30
2023-05-09T10:39:09.224Z,1.13
2023-05-09T10:42:37.553Z,1.10
2023-05-09T10:45:46.020Z,0.75
2023-05-09T10:49:03.645Z,1.20
2023-05-09T10:52:15.672Z,1.00
2023-05-09T10:55:37.385Z,1.30
2023-05-09T11:00:23.847Z,1.27
2023-05-09T11:03:30.270Z,1.45
2023-05-09T11:06:52.336Z,1.35
2023-05-09T11:10:28.549Z,1.50
2023-05-09T11:13:51.894Z,1.83
2023-05-09T11:17:08.009Z,1.40
2023-05-09T11:20:29.900Z,1.88
2023-05-09T11:23:33.994Z,1.50
2023-05-09T11:27:02.284Z,1.70
2023-05-09T11:35:26.219Z,1.20
2023-05-09T11:39:17.257Z,1.00
2023-05-09T11:42:30.119Z,1.40
2023-05-09T11:45:39.473Z,0.93
2023-05-09T11:48:55.157Z,0.90
2023-05-09T11:52:20.971Z,1.00
2023-05-09T11:55:40.414Z,1.05
2023-05-09T11:58:48.127Z,1.15
2023-05-09T12:02:08.945Z,1.20
2023-05-09T12:05:38.776Z,1.20
2023-05-09T12:09:21.470Z,1.30
2023-05-09T12:12:31.684Z,1.63
2023-05-09T12:15:54.653Z,1.48
2023-05-09T12:19:15.775Z,1.40
2023-05-09T12:22:37.567Z,1.27
2023-05-09T12:25:56.303Z,1.30
2023-05-09T12:29:21.463Z,1.20
2023-05-09T12:32:34.716Z,1.50
2023-05-09T12:35:47.569Z,1.42
2023-05-09T12:39:09.761Z,1.23
2023-05-09T12:42:27.833Z,1.20
2023-05-09T12:45:46.070Z,1.00
2023-05-09T12:48:54.513Z,1.52
2023-05-09T12:52:12.083Z,1.55
2023-05-09T12:55:29.265Z,1.50
2023-05-09T12:58:54.655Z,1.13
2023-05-09T13:02:18.075Z,1.20
2023-05-09T13:05:41.118Z,1.20
2023-05-09T13:09:12.072Z,1.42
2023-05-09T13:12:16.360Z,1.42
2023-05-09T13:15:43.520Z,1.20
2023-05-09T13:18:48.806Z,1.45
2023-05-09T13:21:55.697Z,1.27
2023-05-09T13:25:19.245Z,1.90
2023-05-09T13:28:38.300Z,1.48
2023-05-09T13:32:00.631Z,2.00
2023-05-09T13:35:10.936Z,1.98
2023-05-09T13:38:29.756Z,1.70
2023-05-09T13:41:56.758Z,1.70
2023-05-09T13:45:22.039Z,8.18
2023-05-09T13:49:03.894Z,1.83
2023-05-09T13:52:49.096Z,1.20
2023-05-09T13:56:06.175Z,1.20
2023-05-09T13:59:49.550Z,1.02
2023-05-09T14:03:17.019Z,1.30
2023-05-09T14:06:29.455Z,1.20
2023-05-09T14:09:40.441Z,1.20
2023-05-09T14:13:15.909Z,1.80
2023-05-09T14:21:17.247Z,1.30
2023-05-09T14:24:42.815Z,1.30
2023-05-09T14:28:06.814Z,1.45
2023-05-09T14:31:44.408Z,1.90
2023-05-09T14:35:08.801Z,1.83
2023-05-09T14:38:29.180Z,1.33
2023-05-09T14:42:38.108Z,1.40
2023-05-09T14:46:24.965Z,1.00
2023-05-09T14:49:28.313Z,1.10
2023-05-09T14:52:44.792Z,1.10
2023-05-09T14:56:15.887Z,1.10
2023-05-09T14:59:37.207Z,1.00
2023-05-09T15:02:57.995Z,0.90
2023-05-09T15:06:19.754Z,1.80
2023-05-09T15:09:27.913Z,1.10
2023-05-09T15:12:33.883Z,1.00
2023-05-09T15:15:42.770Z,1.00
2023-05-09T15:19:01.509Z,1.05
2023-05-09T15:22:23.653Z,1.00
2023-05-09T15:25:40.553Z,1.30
2023-05-09T15:29:03.688Z,1.10
2023-05-09T15:32:27.805Z,1.23
2023-05-09T15:35:33.619Z,0.80
2023-05-09T15:38:49.925Z,1.10
2023-05-09T15:41:55.013Z,1.05
2023-05-09T15:45:04.373Z,1.10
2023-05-09T15:48:25.841Z,1.30
2023-05-09T15:51:32.862Z,1.60
2023-05-09T15:54:36.640Z,1.10
2023-05-09T15:57:40.517Z,1.05
2023-05-09T16:01:03.473Z,1.13
2023-05-09T16:04:14.257Z,1.03
2023-05-09T16:07:35.375Z,1.30
2023-05-09T16:11:01.571Z,3.53
2023-05-09T16:14:25.097Z,1.40
2023-05-09T16:17:54.513Z,1.00
2023-05-09T16:21:25.561Z,8.10
2023-05-09T16:24:48.274Z,1.70
2023-05-09T16:27:59.122Z,1.02
2023-05-09T16:31:23.301Z,1.20
2023-05-09T16:34:48.458Z,1.15
2023-05-09T16:38:13.500Z,0.90
2023-05-09T16:41:45.086Z,1.00
2023-05-09T16:44:58.546Z,1.00
2023-05-09T16:48:23.180Z,1.20
2023-05-09T16:51:40.827Z,1.33
2023-05-09T16:55:05.667Z,1.50
2023-05-09T16:58:37.175Z,1.20
2023-05-09T17:02:00.662Z,1.20
2023-05-09T17:05:21.508Z,1.30
2023-05-09T17:08:42.460Z,0.95
2023-05-09T17:11:52.845Z,1.50
2023-05-09T17:15:11.577Z,1.10
2023-05-09T17:18:38.610Z,1.92
2023-05-09T17:22:04.811Z,1.65
2023-05-09T17:25:33.572Z,1.48
2023-05-09T17:28:50.429Z,1.47
2023-05-09T17:32:13.429Z,4.00
2023-05-09T17:35:40.010Z,1.42
2023-05-09T17:39:01.381Z,1.27
2023-05-09T17:42:07.182Z,1.25
2023-05-09T17:45:30.491Z,1.20
2023-05-09T17:49:14.694Z,1.00
2023-05-09T17:52:39.598Z,1.50
2023-05-09T17:55:58.570Z,1.40
2023-05-09T17:59:09.013Z,1.88
2023-05-09T18:02:34.374Z,1.67
2023-05-09T18:06:03.237Z,1.40
2023-05-09T18:09:19.793Z,1.40
2023-05-09T18:12:36.840Z,1.23
2023-05-09T18:16:03.463Z,1.50
2023-05-09T18:19:16.819Z,1.37
2023-05-09T18:22:27.423Z,1.70
2023-05-09T18:25:35.020Z,1.80
2023-05-09T18:28:45.156Z,1.40
2023-05-09T18:32:02.222Z,1.58
2023-05-09T18:35:23.260Z,2.90
2023-05-09T18:38:40.097Z,2.00
2023-05-09T18:42:09.728Z,1.83
2023-05-09T18:45:26.328Z,1.95
2023-05-09T18:48:36.535Z,1.63
2023-05-09T18:52:00.353Z,1.57
2023-05-09T18:55:37.224Z,1.90
2023-05-09T18:59:17.545Z,1.63
2023-05-09T19:02:36.940Z,2.15
2023-05-09T19:05:58.561Z,1.75
2023-05-09T19:09:25.394Z,1.90
2023-05-09T19:12:43.066Z,1.88
2023-05-09T19:16:07.301Z,2.17
2023-05-09T19:19:20.324Z,1.70
2023-05-09T19:22:29.323Z,2.10
2023-05-09T19:25:52.540Z,2.50
2023-05-09T19:29:16.336Z,2.22
2023-05-09T19:32:39.593Z,2.03
2023-05-09T19:35:45.373Z,2.38
2023-05-09T19:39:11.126Z,2.00
2023-05-09T19:42:41.373Z,1.90
2023-05-09T19:45:58.119Z,2.10
2023-05-09T19:49:36.315Z,1.95
2023-05-09T19:53:05.505Z,2.35
2023-05-09T19:56:27.105Z,2.00
2023-05-09T20:00:06.943Z,2.20
2023-05-09T20:03:45.145Z,2.22
2023-05-09T20:07:22.126Z,2.38
2023-05-09T20:10:56.289Z,1.98
2023-05-09T20:14:16.185Z,2.10
2023-05-09T20:17:38.992Z,2.10
2023-05-09T20:20:48.515Z,2.33
2023-05-09T20:24:13.037Z,2.08
2023-05-09T20:27:47.314Z,2.20
2023-05-09T20:31:23.191Z,2.25
2023-05-09T20:34:41.133Z,2.37
2023-05-09T20:38:00.912Z,2.85
2023-05-09T20:41:20.180Z,2.65
2023-05-09T20:44:38.569Z,2.45
2023-05-09T20:48:02.057Z,2.72
2023-05-09T20:51:28.422Z,2.47
2023-05-09T20:54:45.250Z,2.70
2023-05-09T20:58:04.085Z,2.92
2023-05-09T21:01:28.927Z,2.38
2023-05-09T21:04:46.063Z,2.45
2023-05-09T21:08:11.838Z,2.73
2023-05-09T21:11:38.723Z,2.30
2023-05-09T21:15:04.100Z,2.88
2023-05-09T21:18:21.983Z,2.40
2023-05-09T21:21:49.509Z,2.60
2023-05-09T21:25:11.218Z,2.40
2023-05-09T21:28:33.647Z,2.47
2023-05-09T21:31:57.909Z,3.10
2023-05-09T21:35:04.563Z,2.65
2023-05-09T21:38:08.423Z,3.25
2023-05-09T21:41:22.461Z,2.60
2023-05-09T21:44:34.431Z,2.80
2023-05-09T21:47:51.092Z,2.90
2023-05-09T21:51:04.469Z,2.72
2023-05-09T21:54:24.304Z,2.90
2023-05-09T21:57:28.224Z,2.80
2023-05-09T22:00:35.874Z,2.85
2023-05-09T22:04:04.129Z,2.55
2023-05-09T22:07:20.442Z,2.22
2023-05-09T22:10:37.857Z,2.10
2023-05-09T22:14:00.361Z,1.93
2023-05-09T22:17:16.741Z,1.58
2023-05-09T22:20:44.764Z,2.20
2023-05-09T22:24:10.987Z,2.17
2023-05-09T22:27:27.932Z,2.72
2023-05-09T22:30:50.733Z,2.53
2023-05-09T22:34:28.594Z,2.65
2023-05-09T22:37:40.051Z,2.58
2023-05-09T22:40:59.386Z,2.90
2023-05-09T22:44:15.435Z,2.80
2023-05-09T22:47:36.803Z,2.73
2023-05-09T22:50:51.330Z,2.67
2023-05-09T22:54:09.504Z,2.90
2023-05-09T22:57:25.356Z,2.53
2023-05-09T23:00:34.077Z,2.50
2023-05-09T23:03:45.146Z,2.83
2023-05-09T23:10:58.815Z,2.50
2023-05-09T23:14:02.938Z,2.10
2023-05-09T23:17:08.432Z,2.00
2023-05-09T23:20:14.665Z,1.97
2023-05-09T23:23:35.252Z,2.10
2023-05-09T23:27:19.217Z,2.38
2023-05-09T23:30:28.892Z,1.90
2023-05-09T23:33:53.477Z,2.22
2023-05-09T23:37:30.008Z,1.87
2023-05-09T23:40:55.812Z,2.33
2023-05-09T23:44:25.704Z,2.17
2023-05-09T23:47:58.379Z,2.03
2023-05-09T23:51:25.767Z,1.70
2023-05-09T23:54:47.834Z,2.20
2023-05-09T23:58:09.637Z,2.30
